Caledonia, MI

3:19 PM EDT on September 02, 2014 (GMT -0400)
Thornapple/Irving Township | Change Station
CLOSE
Current Station
Personal Weather Station
Location: Middleville, MI
Elevation: 804 ft
Nearby Weather Stations

Elev 804 ft 42.76 °N, 85.43 °W | Updated 1 second ago

Mostly Cloudy
Mostly Cloudy
82.6 °F
Feels Like 85 °F
N
12.7
Wind Variable Wind from SSE
Gusts 12.7 mph

Today
High -- | Low -- °F
--% Chance of Precip.
Yesterday
High -- | Low -- °F
Precip. -- in
7:07 AM 8:14 PM
First Quarter, 54% visible
Pressure 29.88 in
Visibility 10.0 miles
Clouds Scattered Clouds 4400 ft
Mostly Cloudy 23000 ft
Heat Index 85 °F
Dew Point 66 °F
Humidity 57%
Rainfall 0.03 in
Snow Depth Not available.
UV 4 out of 12
Pollen 8.90 out of 12
Ozone Good
PM2.5 Good
Flu Activity Not available.
METAR KGRR 021853Z 28015G20KT 10SM SCT044 BKN230 26/15 A2989 RMK AO2 SLP117 T02610150

More Conditions Fewer Conditions

Pressure 29.88 in
Visibility 10.0 miles
Clouds Scattered Clouds 4400 ft
Mostly Cloudy 23000 ft
Heat Index 85 °F
Dew Point 66 °F
Humidity 57%
Rainfall 0.03 in
Snow Depth Not available.
UV 4 out of 12
Pollen 8.90 out of 12
Ozone Good
PM2.5 Good
Flu Activity Not available.
METAR KGRR 021853Z 28015G20KT 10SM SCT044 BKN230 26/15 A2989 RMK AO2 SLP117 T02610150

More Conditions Fewer Conditions

10-Day Weather Forecast

Almanac

Astronomy

Sep. 02, 2014 Rise Set
Actual Time 7:07 AM EDT 8:14 PM EDT
Civil Twilight 6:38 AM EDT 8:43 PM EDT
Nautical Twilight 6:04 AM EDT 9:18 PM EDT
Astronomical Twilight 5:27 AM EDT 9:54 PM EDT
Moon 3:01 PM EDT 12:07 AM EDT
Length of Visible Light 14h 05m
Length of Day
13h 06m
Tomorrow will be 2m 47s shorter.
First Quarter, 54% of the Moon is Illuminated
Today
First Quarter
Sep 8
Full
Sep 15
Last Quarter
Sep 24
New
Oct 1
First Quarter

Today's Extremes

State Highs State Lows

Community

WunderPhotos

Upload Photos

1,749,746 photos uploaded!

WunderBlogs® & News

By Dr. Jeff Masters
Director of Meteorology, Weather Underground
By Kari Strenfel
Meteorologist, Weather Underground
By Christopher C. Burt
Weather Historian, Weather Underground
September 2, 2014
September 2, 2014
September 2, 2014

Nearby

Air Quality

  Air Quality AQ Index Pollutant
Yesterday Good
OZONE
Yesterday Good
PM2.5
Current Good
OZONE
Current Good
PM2.5
Tuesday Good
OZONE
Tuesday Good
PM2.5
Wednesday Good
OZONE
Wednesday Good
PM2.5
Thursday Moderate
PM2.5
Thursday Good
OZONE
Friday Good
OZONE
Friday Good
PM2.5
Saturday Good
OZONE
Saturday Good
PM2.5
Sunday Good
OZONE
Sunday Good
PM2.5

Snow Depth

Station Depth Elevation
No new snow has been reported.

Earthquake Activity

City Distance Mag. Time & Date
No recent earthquake activity has been reported nearby.
Minimum magnitude displayed is 2.5.

Coastal Water Temperatures

Place Temperature
Holland, MI 71.1 °F

Nearby Weather Stations